Time;durP1;ratioP1;P1;durP2;ratioP2;P2;SDS_P1;SDS_P2;PMS_P1;PMS_P2;Temp;Humidity;BMP_temperature;BMP_pressure;BME280_temperature;BME280_humidity;BME280_pressure;Samples;Min_cycle;Max_cycle;Signal;HPM_P1;HPM_P2
2022/08/19 00:00:40;;;;;;;10.50;9.70;;;23.70;99.90;;;;;;5115359;28;20452;-59
2022/08/19 00:03:07;;;;;;;9.00;8.50;;;23.80;99.90;;;;;;5115508;28;20449;-59
2022/08/19 00:05:34;;;;;;;10.63;9.93;;;23.90;99.90;;;;;;5115283;28;20454;-59
2022/08/19 00:08:01;;;;;;;10.73;9.90;;;23.90;99.90;;;;;;5115110;28;20452;-59
2022/08/19 00:10:28;;;;;;;10.10;9.40;;;23.70;99.90;;;;;;5115280;28;20959;-59
2022/08/19 00:12:56;;;;;;;11.70;10.70;;;23.40;99.90;;;;;;5114847;28;20449;-58
2022/08/19 00:15:23;;;;;;;11.13;10.10;;;22.90;99.90;;;;;;5115200;28;20786;-60
2022/08/19 00:17:49;;;;;;;10.73;10.03;;;22.60;99.90;;;;;;5115081;28;20909;-59
2022/08/19 00:20:19;;;;;;;10.37;9.63;;;22.60;99.90;;;;;;5115182;28;20861;-59
2022/08/19 00:22:47;;;;;;;11.63;10.73;;;22.80;99.90;;;;;;5114910;28;20541;-59
2022/08/19 00:25:14;;;;;;;11.33;10.43;;;22.90;99.90;;;;;;5114644;28;20452;-59
2022/08/19 00:27:40;;;;;;;11.80;10.97;;;22.90;99.90;;;;;;5115006;28;20438;-59
2022/08/19 00:30:10;;;;;;;12.47;11.37;;;23.00;99.90;;;;;;5114877;28;20452;-59
2022/08/19 00:32:38;;;;;;;12.47;11.57;;;23.00;99.90;;;;;;5115296;28;20449;-59
2022/08/19 00:35:05;;;;;;;12.90;11.60;;;23.00;99.90;;;;;;5114689;28;20536;-60
2022/08/19 00:37:33;;;;;;;12.10;10.47;;;23.00;99.90;;;;;;5114715;28;20469;-59
2022/08/19 00:39:59;;;;;;;11.77;10.87;;;22.90;99.90;;;;;;5114789;28;20817;-59
2022/08/19 00:42:28;;;;;;;12.80;11.80;;;22.60;99.90;;;;;;5114618;28;20507;-59
2022/08/19 00:44:55;;;;;;;13.70;12.40;;;22.50;99.90;;;;;;5114541;28;20829;-60
2022/08/19 00:47:23;;;;;;;12.50;11.50;;;22.60;99.90;;;;;;5114223;28;20477;-59
2022/08/19 00:49:53;;;;;;;12.80;11.70;;;22.70;99.90;;;;;;5114309;28;20532;-59
2022/08/19 00:52:24;;;;;;;12.20;11.30;;;22.70;99.90;;;;;;5114110;28;20441;-59
2022/08/19 00:54:53;;;;;;;12.50;11.37;;;22.50;99.90;;;;;;5114376;28;20484;-59
2022/08/19 00:57:24;;;;;;;12.50;11.20;;;22.60;99.90;;;;;;5114210;28;20824;-59
2022/08/19 00:59:55;;;;;;;20.90;12.47;;;22.50;99.90;;;;;;5114317;28;20450;-59
2022/08/19 01:02:23;;;;;;;25.27;16.00;;;22.20;99.90;;;;;;5114179;28;20458;-59
2022/08/19 01:04:50;;;;;;;18.70;15.50;;;22.20;99.90;;;;;;5113960;28;20546;-59
2022/08/19 01:07:16;;;;;;;15.83;14.33;;;22.20;99.90;;;;;;5114245;28;20456;-59
2022/08/19 01:09:43;;;;;;;17.07;15.33;;;22.20;99.90;;;;;;5114044;28;20448;-59
2022/08/19 01:12:10;;;;;;;15.97;14.00;;;22.20;99.90;;;;;;5114015;28;20445;-59
2022/08/19 01:14:38;;;;;;;14.73;13.17;;;21.90;99.90;;;;;;5113914;28;20454;-59
2022/08/19 01:17:05;;;;;;;15.03;13.87;;;21.60;99.90;;;;;;5113716;28;20484;-59
2022/08/19 01:19:39;;;;;;;14.97;13.70;;;21.20;99.90;;;;;;5112859;28;20456;-59
2022/08/19 01:22:12;;;;;;;16.00;14.60;;;21.20;99.90;;;;;;5113893;28;20489;-59
2022/08/19 01:24:40;;;;;;;15.73;14.33;;;20.80;99.90;;;;;;5113654;28;20937;-58
2022/08/19 01:27:07;;;;;;;15.77;14.57;;;20.70;99.90;;;;;;5113603;28;20544;-59
2022/08/19 01:29:34;;;;;;;17.20;15.80;;;20.70;99.90;;;;;;5113685;28;20541;-59
2022/08/19 01:32:02;;;;;;;14.90;13.70;;;20.70;99.90;;;;;;5113506;28;20933;-59
2022/08/19 01:34:28;;;;;;;14.60;13.17;;;20.70;99.90;;;;;;5113971;28;20528;-59
2022/08/19 01:36:54;;;;;;;13.53;12.30;;;20.60;99.90;;;;;;5113189;28;20550;-59
2022/08/19 01:39:23;;;;;;;13.23;12.20;;;20.70;99.90;;;;;;5113622;28;20532;-59
2022/08/19 01:41:54;;;;;;;13.47;12.40;;;20.80;99.90;;;;;;5113478;28;20449;-58
2022/08/19 01:44:23;;;;;;;13.23;12.13;;;20.90;99.90;;;;;;5113466;28;20449;-59
2022/08/19 01:46:51;;;;;;;12.30;11.10;;;21.00;99.90;;;;;;5113457;28;20452;-59
2022/08/19 01:49:20;;;;;;;13.33;12.23;;;21.10;99.90;;;;;;5113564;28;20449;-59
2022/08/19 01:51:49;;;;;;;13.17;11.73;;;21.20;99.90;;;;;;5113345;28;20449;-58
2022/08/19 01:54:18;;;;;;;13.03;11.93;;;21.00;99.90;;;;;;5113352;28;20441;-59
2022/08/19 01:56:44;;;;;;;14.50;13.30;;;20.70;99.90;;;;;;5113734;28;20447;-59
2022/08/19 01:59:15;;;;;;;12.80;11.73;;;20.70;99.90;;;;;;5113128;28;20482;-58
2022/08/19 02:01:41;;;;;;;12.10;11.10;;;20.70;99.90;;;;;;5113309;28;20481;-59
2022/08/19 02:04:08;;;;;;;13.60;12.37;;;20.90;99.90;;;;;;5113335;28;20550;-58
2022/08/19 02:06:35;;;;;;;11.93;10.83;;;20.90;99.90;;;;;;5113276;28;20450;-59
2022/08/19 02:09:03;;;;;;;11.93;11.07;;;21.10;99.90;;;;;;5113189;28;20525;-58
2022/08/19 02:11:33;;;;;;;11.30;10.40;;;21.20;99.90;;;;;;5113338;28;20823;-59
2022/08/19 02:14:01;;;;;;;11.10;10.20;;;21.30;99.90;;;;;;5113314;28;20540;-59
2022/08/19 02:16:30;;;;;;;9.60;8.77;;;21.20;99.90;;;;;;5113227;28;20529;-59
2022/08/19 02:18:56;;;;;;;9.67;8.93;;;21.20;99.90;;;;;;5113050;28;20517;-59
2022/08/19 02:21:24;;;;;;;10.83;9.90;;;21.30;99.90;;;;;;5113094;28;20880;-58
2022/08/19 02:23:51;;;;;;;10.03;9.23;;;21.20;99.90;;;;;;5112999;28;20446;-59
2022/08/19 02:26:19;;;;;;;10.77;9.77;;;21.40;99.90;;;;;;5112920;28;20445;-59
2022/08/19 02:28:45;;;;;;;10.77;9.63;;;21.50;99.90;;;;;;5113319;28;20445;-59
2022/08/19 02:31:14;;;;;;;10.00;9.27;;;21.60;99.90;;;;;;5113098;28;20891;-59
2022/08/19 02:33:42;;;;;;;11.97;9.90;;;21.60;99.90;;;;;;5112934;28;20452;-58
2022/08/19 02:36:10;;;;;;;11.17;10.07;;;21.50;99.90;;;;;;5112910;28;20449;-59
2022/08/19 02:38:36;;;;;;;12.10;9.70;;;21.40;99.90;;;;;;5112839;28;20484;-59
2022/08/19 02:41:05;;;;;;;11.40;10.50;;;21.40;99.90;;;;;;5113163;28;20471;-59
2022/08/19 02:43:36;;;;;;;11.67;10.67;;;21.40;99.90;;;;;;5112896;28;20878;-59
2022/08/19 02:46:11;;;;;;;13.03;11.80;;;21.30;99.90;;;;;;5112919;28;20445;-58
2022/08/19 02:48:37;;;;;;;11.63;10.63;;;21.30;99.90;;;;;;5112646;28;20559;-58
2022/08/19 02:51:05;;;;;;;10.63;9.83;;;21.40;99.90;;;;;;5116601;27;21012;-59
2022/08/19 02:53:32;;;;;;;11.53;10.60;;;21.50;99.90;;;;;;5116721;28;20445;-59
2022/08/19 02:55:59;;;;;;;11.30;10.40;;;21.60;99.90;;;;;;5116709;28;20816;-59
2022/08/19 02:58:26;;;;;;;11.60;10.63;;;21.50;99.90;;;;;;5116515;28;20483;-59
2022/08/19 03:00:55;;;;;;;11.17;10.20;;;21.50;99.90;;;;;;5116501;28;20450;-59
2022/08/19 03:03:21;;;;;;;11.93;11.10;;;21.60;99.90;;;;;;5116425;28;20471;-58
2022/08/19 03:05:48;;;;;;;13.00;11.90;;;21.40;99.90;;;;;;5116335;28;20454;-58
2022/08/19 03:08:16;;;;;;;12.30;11.30;;;21.40;99.90;;;;;;5116558;28;20451;-58
2022/08/19 03:10:46;;;;;;;14.20;13.10;;;21.20;99.90;;;;;;5116455;28;20456;-58
2022/08/19 03:13:14;;;;;;;14.13;13.03;;;21.20;99.90;;;;;;5116216;28;20449;-59
2022/08/19 03:15:42;;;;;;;14.40;13.20;;;21.10;99.90;;;;;;5116188;28;20461;-59
2022/08/19 03:18:09;;;;;;;14.47;13.13;;;21.10;99.90;;;;;;5115808;28;20476;-58
2022/08/19 03:20:41;;;;;;;14.27;13.13;;;21.20;99.90;;;;;;5115998;28;20941;-58
2022/08/19 03:23:08;;;;;;;15.40;14.10;;;21.10;99.90;;;;;;5116096;28;20889;-58
2022/08/19 03:25:40;;;;;;;15.73;14.33;;;21.00;99.90;;;;;;5116047;28;20540;-58
2022/08/19 03:28:07;;;;;;;16.63;15.23;;;20.90;99.90;;;;;;5115800;28;20933;-58
2022/08/19 03:30:33;;;;;;;14.37;13.23;;;21.00;99.90;;;;;;5115788;28;20536;-59
2022/08/19 03:33:00;;;;;;;15.30;14.00;;;21.00;99.90;;;;;;5115979;28;20446;-58
2022/08/19 03:35:27;;;;;;;16.30;14.90;;;21.00;99.90;;;;;;5115953;28;20442;-59
2022/08/19 03:37:53;;;;;;;15.10;14.00;;;20.90;99.90;;;;;;5115829;28;20552;-58
2022/08/19 03:40:20;;;;;;;16.43;15.07;;;21.00;99.90;;;;;;5115881;28;20524;-58
2022/08/19 03:42:47;;;;;;;15.23;14.13;;;20.90;99.90;;;;;;5115578;28;20448;-58
2022/08/19 03:45:14;;;;;;;15.80;14.50;;;20.90;99.90;;;;;;5115506;28;20808;-58
2022/08/19 03:47:40;;;;;;;14.93;13.73;;;21.00;99.90;;;;;;5115524;28;20499;-58
2022/08/19 03:50:08;;;;;;;16.20;14.87;;;21.10;99.90;;;;;;5115709;28;20441;-58
2022/08/19 03:52:36;;;;;;;15.00;13.80;;;21.00;99.90;;;;;;5115421;28;20467;-58
2022/08/19 03:55:03;;;;;;;15.17;13.87;;;21.00;99.90;;;;;;5115688;28;20453;-58
2022/08/19 03:57:29;;;;;;;16.30;14.90;;;20.80;99.90;;;;;;5115206;28;20447;-58
2022/08/19 03:59:57;;;;;;;15.63;14.43;;;20.80;99.90;;;;;;5114604;28;20912;-58
2022/08/19 04:02:24;;;;;;;16.53;15.23;;;20.70;99.90;;;;;;5115397;28;20870;-58
2022/08/19 04:04:54;;;;;;;17.70;16.33;;;20.60;99.90;;;;;;5115271;28;20449;-58
2022/08/19 04:07:21;;;;;;;15.33;14.17;;;20.80;99.90;;;;;;5115227;28;20449;-58
2022/08/19 04:09:48;;;;;;;15.43;14.13;;;20.90;99.90;;;;;;5115040;28;20541;-58
2022/08/19 04:12:15;;;;;;;14.40;13.27;;;20.90;99.90;;;;;;5114925;28;20450;-58
2022/08/19 04:14:42;;;;;;;14.47;13.20;;;20.80;99.90;;;;;;5115113;28;20456;-58
2022/08/19 04:17:10;;;;;;;14.90;13.80;;;20.70;99.90;;;;;;5115067;28;20452;-59
2022/08/19 04:19:38;;;;;;;14.50;13.40;;;20.60;99.90;;;;;;5114867;28;20477;-58
2022/08/19 04:22:05;;;;;;;14.93;13.70;;;20.70;99.90;;;;;;5114641;28;20959;-58
2022/08/19 04:24:31;;;;;;;25.80;23.50;;;20.70;99.90;;;;;;5114675;28;20532;-58
2022/08/19 04:27:00;;;;;;;14.73;13.63;;;20.60;99.90;;;;;;5114576;28;20450;-58
2022/08/19 04:29:27;;;;;;;15.77;14.47;;;20.70;99.90;;;;;;5114845;28;20456;-58
2022/08/19 04:31:55;;;;;;;16.10;14.80;;;20.70;99.90;;;;;;5114500;28;20959;-58
2022/08/19 04:34:26;;;;;;;15.37;14.17;;;20.80;99.90;;;;;;5114753;28;20925;-58
2022/08/19 04:36:55;;;;;;;15.57;14.30;;;20.90;99.90;;;;;;5114459;28;20940;-58
2022/08/19 04:42:38;;;;;;;13.23;12.20;;;21.00;99.90;;;;;;5114384;27;20530;-58
2022/08/19 04:44:58;;;;;;;14.50;13.30;;;21.00;99.90;;;;;;5114450;28;20440;-59
2022/08/19 04:47:24;;;;;;;13.63;12.63;;;21.00;99.90;;;;;;5114303;28;20474;-58
2022/08/19 04:49:52;;;;;;;14.27;12.80;;;21.10;99.90;;;;;;5114141;28;20945;-58
2022/08/19 04:52:19;;;;;;;14.27;12.97;;;21.20;99.90;;;;;;5114270;28;20542;-58
2022/08/19 04:54:45;;;;;;;13.03;11.90;;;21.20;99.90;;;;;;5114320;28;21032;-59
2022/08/19 04:57:12;;;;;;;14.20;13.00;;;21.00;99.90;;;;;;5114260;28;20452;-58
2022/08/19 04:59:39;;;;;;;14.23;12.90;;;21.10;99.90;;;;;;5114056;28;20477;-58
2022/08/19 05:02:08;;;;;;;12.37;11.50;;;21.10;99.90;;;;;;5114068;28;20878;-58
2022/08/19 05:04:35;;;;;;;13.93;12.83;;;21.10;99.90;;;;;;5114015;28;20848;-58
2022/08/19 05:07:02;;;;;;;13.83;12.77;;;21.20;99.90;;;;;;5113986;28;20481;-58
2022/08/19 05:09:29;;;;;;;13.43;12.27;;;21.20;99.90;;;;;;5114182;28;20544;-58
2022/08/19 05:11:56;;;;;;;13.60;12.50;;;21.30;99.90;;;;;;5113128;28;20476;-58
2022/08/19 05:14:22;;;;;;;13.10;12.10;;;21.30;99.90;;;;;;5113901;28;20494;-58
2022/08/19 05:16:49;;;;;;;13.83;12.73;;;21.30;99.90;;;;;;5113663;28;21020;-59
2022/08/19 05:24:46;;;;;;;12.90;11.90;;;21.40;99.90;;;;;;5113764;28;20445;-58
2022/08/19 05:27:13;;;;;;;12.60;11.53;;;21.40;99.90;;;;;;5113654;28;20446;-59
2022/08/19 05:29:39;;;;;;;12.90;11.80;;;21.40;99.90;;;;;;5113522;28;20450;-58
2022/08/19 05:32:08;;;;;;;13.77;12.73;;;21.40;99.90;;;;;;5113645;28;20449;-58
2022/08/19 05:34:35;;;;;;;13.00;12.10;;;21.40;99.90;;;;;;5113381;28;20518;-58
2022/08/19 05:37:04;;;;;;;12.83;11.93;;;21.30;99.90;;;;;;5113584;28;20453;-58
2022/08/19 05:39:34;;;;;;;14.27;13.17;;;21.30;99.90;;;;;;5113432;28;20979;-58
2022/08/19 05:42:05;;;;;;;13.67;12.67;;;21.40;99.90;;;;;;5113203;28;20803;-58
2022/08/19 05:44:34;;;;;;;13.90;12.70;;;21.50;99.90;;;;;;5113533;28;20445;-58
2022/08/19 05:47:04;;;;;;;14.47;13.33;;;21.50;99.90;;;;;;5113094;28;20900;-58
2022/08/19 05:49:32;;;;;;;15.00;13.77;;;21.50;99.90;;;;;;5113342;28;20450;-58
2022/08/19 05:51:59;;;;;;;14.10;12.97;;;21.70;99.90;;;;;;5113303;28;20536;-59
2022/08/19 05:54:26;;;;;;;14.13;13.03;;;21.70;99.90;;;;;;5113118;28;20449;-58
2022/08/19 05:56:54;;;;;;;15.10;13.80;;;21.80;99.90;;;;;;5113442;28;20475;-58
2022/08/19 05:59:23;;;;;;;13.77;12.67;;;21.70;99.90;;;;;;5113259;28;20481;-58
2022/08/19 06:01:51;;;;;;;14.73;13.33;;;21.70;99.90;;;;;;5113189;28;20695;-58
2022/08/19 06:04:19;;;;;;;15.63;14.37;;;21.70;99.90;;;;;;5113187;28;20445;-58
2022/08/19 06:06:46;;;;;;;17.03;15.27;;;21.80;99.90;;;;;;5113109;28;20513;-59
2022/08/19 06:09:13;;;;;;;13.73;12.63;;;21.70;99.90;;;;;;5112970;28;20453;-58
2022/08/19 06:11:43;;;;;;;17.20;15.50;;;21.80;99.90;;;;;;5113139;28;20445;-58
2022/08/19 06:14:12;;;;;;;15.57;14.27;;;21.90;99.90;;;;;;5113144;28;20450;-57
2022/08/19 06:16:41;;;;;;;15.47;14.37;;;21.90;99.90;;;;;;5112782;28;20450;-57
2022/08/19 06:19:10;;;;;;;17.87;15.80;;;21.80;99.90;;;;;;5112901;28;20833;-57
2022/08/19 06:21:38;;;;;;;17.23;15.73;;;21.70;99.90;;;;;;5112923;28;20445;-57
2022/08/19 06:24:06;;;;;;;17.30;15.80;;;21.60;99.90;;;;;;5115740;28;20449;-58
2022/08/19 06:26:35;;;;;;;18.53;16.93;;;21.60;99.90;;;;;;5117149;28;20445;-58
2022/08/19 06:29:02;;;;;;;18.23;16.37;;;21.70;99.90;;;;;;5117038;28;20449;-59
2022/08/19 06:31:31;;;;;;;19.93;16.30;;;21.70;99.90;;;;;;5116928;28;20543;-58
2022/08/19 06:33:58;;;;;;;19.10;17.40;;;21.60;99.90;;;;;;5116862;28;20511;-58
2022/08/19 06:36:31;;;;;;;19.23;17.53;;;21.60;99.90;;;;;;5117041;28;20437;-57
2022/08/19 06:38:58;;;;;;;20.67;18.63;;;21.70;99.90;;;;;;5116892;28;20465;-58
2022/08/19 06:41:24;;;;;;;18.13;16.63;;;21.60;99.90;;;;;;5116758;28;20955;-57
2022/08/19 06:43:51;;;;;;;20.80;18.77;;;21.60;99.90;;;;;;5116686;28;20485;-58
2022/08/19 06:46:19;;;;;;;20.23;18.00;;;21.60;99.90;;;;;;5116581;28;20995;-58
2022/08/19 06:48:46;;;;;;;19.83;18.13;;;21.60;99.90;;;;;;5116385;28;20473;-58
2022/08/19 06:51:18;;;;;;;20.60;18.40;;;21.60;99.90;;;;;;5116631;28;20530;-58
2022/08/19 06:53:46;;;;;;;19.27;17.47;;;21.80;99.90;;;;;;5116696;28;20469;-58
2022/08/19 06:56:12;;;;;;;21.83;19.67;;;21.80;99.90;;;;;;5116580;28;20449;-58
2022/08/19 06:58:39;;;;;;;20.50;18.30;;;21.90;99.90;;;;;;5116244;28;20441;-58
2022/08/19 07:01:06;;;;;;;19.73;17.70;;;22.00;99.90;;;;;;5116309;28;20544;-58
2022/08/19 07:03:35;;;;;;;22.67;18.20;;;22.10;99.90;;;;;;5116397;28;20800;-58
2022/08/19 07:06:04;;;;;;;19.27;17.43;;;22.20;99.90;;;;;;5115332;28;20575;-57
2022/08/19 07:08:33;;;;;;;19.13;17.57;;;22.30;99.90;;;;;;5116250;28;20456;-58
2022/08/19 07:11:00;;;;;;;19.37;17.60;;;22.30;99.90;;;;;;5116202;28;20570;-57
2022/08/19 07:13:27;;;;;;;19.37;17.67;;;22.30;99.90;;;;;;5115821;28;20446;-56
2022/08/19 07:15:53;;;;;;;20.33;18.70;;;22.00;99.90;;;;;;5116135;28;20788;-58
2022/08/19 07:18:21;;;;;;;19.90;18.27;;;22.00;99.90;;;;;;5116181;28;20484;-57
2022/08/19 07:20:48;;;;;;;21.17;18.53;;;22.10;99.90;;;;;;5115792;28;20516;-61
2022/08/19 07:23:15;;;;;;;21.57;19.00;;;22.10;99.90;;;;;;5115459;28;20963;-58
2022/08/19 07:25:43;;;;;;;21.00;18.90;;;22.10;99.90;;;;;;5115908;28;20446;-57
2022/08/19 07:28:10;;;;;;;19.77;18.03;;;22.10;99.90;;;;;;5121508;27;20471;-58
2022/08/19 07:30:40;;;;;;;20.77;18.67;;;22.00;99.90;;;;;;5136119;27;20932;-59
2022/08/19 07:33:07;;;;;;;21.20;19.07;;;22.00;99.90;;;;;;5136316;27;20484;-58
2022/08/19 07:35:33;;;;;;;19.80;18.20;;;22.10;99.90;;;;;;5135313;27;20487;-58
2022/08/19 07:38:02;;;;;;;21.10;19.00;;;22.20;99.90;;;;;;5136195;27;20483;-59
2022/08/19 07:40:29;;;;;;;19.23;17.33;;;22.30;99.90;;;;;;5135882;27;20870;-59
2022/08/19 07:42:56;;;;;;;20.90;18.87;;;22.30;99.90;;;;;;5135590;27;20815;-59
2022/08/19 07:45:23;;;;;;;22.20;19.27;;;22.50;99.90;;;;;;5136122;27;20803;-60
2022/08/19 07:47:50;;;;;;;19.77;18.07;;;22.60;99.90;;;;;;5135747;27;20479;-61
2022/08/19 07:50:18;;;;;;;20.50;18.70;;;22.80;99.90;;;;;;5136066;27;20451;-56
2022/08/19 07:52:45;;;;;;;19.57;17.53;;;22.90;99.90;;;;;;5132478;27;20539;-58
2022/08/19 07:55:11;;;;;;;22.40;19.67;;;23.10;99.90;;;;;;5135537;27;20448;-58
2022/08/19 07:57:38;;;;;;;21.43;19.27;;;23.20;99.90;;;;;;5126848;27;20445;-65
2022/08/19 08:00:08;;;;;;;20.07;18.07;;;23.20;99.90;;;;;;5132206;27;20546;-59
2022/08/19 08:02:34;;;;;;;18.93;17.43;;;23.20;99.90;;;;;;5127382;27;20499;-60
2022/08/19 08:10:29;;;;;;;20.03;18.33;;;23.10;99.90;;;;;;5121075;27;20792;-68
2022/08/19 08:12:55;;;;;;;18.20;16.30;;;23.20;99.90;;;;;;5129015;27;20468;-67
2022/08/19 08:15:23;;;;;;;18.13;16.70;;;23.20;99.90;;;;;;5123201;27;20444;-60
2022/08/19 08:17:50;;;;;;;19.00;17.40;;;23.40;99.90;;;;;;5135371;27;20523;-58
2022/08/19 08:20:17;;;;;;;18.00;16.50;;;23.30;99.90;;;;;;5135815;27;20484;-62
2022/08/19 08:25:30;;;;;;;18.00;16.00;;;23.60;99.90;;;;;;5123236;27;20429;-58
2022/08/19 08:27:59;;;;;;;17.03;15.73;;;23.80;99.90;;;;;;5135225;27;20456;-63
2022/08/19 08:30:29;;;;;;;18.30;16.70;;;23.80;99.90;;;;;;5128395;27;20442;-59
2022/08/19 08:32:56;;;;;;;17.63;16.30;;;23.80;99.90;;;;;;5125136;27;20449;-57
2022/08/19 08:35:24;;;;;;;18.40;16.87;;;24.00;99.90;;;;;;5129315;27;20803;-61
2022/08/19 08:37:54;;;;;;;18.87;17.17;;;24.10;99.90;;;;;;5125780;27;20453;-61
2022/08/19 08:40:27;;;;;;;19.10;17.20;;;24.20;99.90;;;;;;5131621;27;20971;-60
2022/08/19 08:43:00;;;;;;;17.17;15.67;;;24.20;99.90;;;;;;5134949;27;20535;-63
2022/08/19 08:45:29;;;;;;;19.47;17.53;;;24.30;99.90;;;;;;5134972;27;20536;-62
2022/08/19 08:48:02;;;;;;;16.60;15.30;;;24.40;99.90;;;;;;5134856;27;20504;-61
2022/08/19 08:50:35;;;;;;;19.47;17.07;;;24.40;99.90;;;;;;5124895;27;20455;-64
2022/08/19 08:53:03;;;;;;;18.83;16.87;;;24.60;99.90;;;;;;5129709;27;20471;-59
2022/08/19 08:55:31;;;;;;;16.07;14.87;;;24.60;99.90;;;;;;5120574;27;20441;-63
2022/08/19 08:58:01;;;;;;;17.07;15.73;;;24.70;99.90;;;;;;5120520;27;20445;-59
2022/08/19 09:00:31;;;;;;;20.80;16.80;;;24.80;99.90;;;;;;5119362;27;20479;-62
2022/08/19 09:03:00;;;;;;;15.37;14.27;;;24.90;99.90;;;;;;5119616;27;20545;-65
2022/08/19 09:05:36;;;;;;;16.70;15.27;;;25.00;99.90;;;;;;5119290;27;20520;-62
2022/08/19 09:08:09;;;;;;;17.13;15.70;;;24.90;99.90;;;;;;5119200;27;20453;-59
2022/08/19 09:10:40;;;;;;;16.20;14.80;;;24.90;99.90;;;;;;5126880;27;20444;-59
2022/08/19 09:13:18;;;;;;;17.67;16.17;;;24.90;99.90;;;;;;5134168;27;20436;-59
2022/08/19 09:15:49;;;;;;;16.43;15.07;;;24.90;99.90;;;;;;5134440;27;20440;-61
2022/08/19 09:18:16;;;;;;;17.50;16.00;;;25.00;99.90;;;;;;5134155;27;20430;-61
2022/08/19 09:20:43;;;;;;;16.30;14.90;;;25.00;99.90;;;;;;5133906;27;20570;-61
2022/08/19 09:23:10;;;;;;;16.43;15.13;;;25.00;99.90;;;;;;5134289;27;20808;-59
2022/08/19 09:25:37;;;;;;;14.97;13.57;;;25.00;99.90;;;;;;5134358;27;20995;-59
2022/08/19 09:28:04;;;;;;;16.30;15.00;;;24.90;99.90;;;;;;5134269;27;20440;-59
2022/08/19 09:30:33;;;;;;;18.10;16.30;;;24.80;99.90;;;;;;5127655;27;20437;-57
2022/08/19 09:33:01;;;;;;;23.50;17.10;;;24.70;99.90;;;;;;5093072;28;20812;-58
2022/08/19 09:35:30;;;;;;;16.70;15.40;;;24.40;99.90;;;;;;5093144;28;20789;-58
2022/08/19 09:37:57;;;;;;;16.33;14.70;;;24.50;99.90;;;;;;5092451;28;20958;-60
2022/08/19 09:40:25;;;;;;;18.03;15.67;;;24.30;99.90;;;;;;5092916;28;20849;-62
2022/08/19 09:42:52;;;;;;;16.33;14.93;;;24.20;99.90;;;;;;5093059;28;20446;-61
2022/08/19 09:45:21;;;;;;;18.20;16.47;;;24.30;99.90;;;;;;5092458;28;20941;-62
2022/08/19 09:47:48;;;;;;;21.00;16.00;;;24.30;99.90;;;;;;5092681;28;20474;-63
2022/08/19 09:50:16;;;;;;;20.67;17.33;;;24.40;99.90;;;;;;5093022;28;20450;-60
2022/08/19 09:52:43;;;;;;;18.30;16.77;;;24.40;99.90;;;;;;5092726;28;20457;-60
2022/08/19 09:55:11;;;;;;;25.73;16.47;;;24.50;99.90;;;;;;5107732;27;20554;-60
2022/08/19 09:57:38;;;;;;;15.30;14.00;;;24.50;99.90;;;;;;5118206;27;20446;-60
2022/08/19 10:00:06;;;;;;;16.80;15.23;;;24.50;99.90;;;;;;5115352;28;20466;-60
2022/08/19 10:02:33;;;;;;;15.17;14.07;;;24.50;99.90;;;;;;5106245;27;20866;-59
2022/08/19 10:07:45;;;;;;;16.43;15.20;;;24.40;99.90;;;;;;5133130;28;20439;-60
2022/08/19 10:10:12;;;;;;;15.27;13.97;;;24.50;99.90;;;;;;5121785;28;20452;-59
2022/08/19 10:12:39;;;;;;;14.63;13.30;;;24.80;99.90;;;;;;5133521;28;20853;-59
2022/08/19 10:15:06;;;;;;;17.37;14.67;;;24.90;99.90;;;;;;5131855;28;20995;-61
2022/08/19 10:17:34;;;;;;;15.37;14.13;;;24.80;99.90;;;;;;5122446;28;20534;-62
2022/08/19 10:20:02;;;;;;;15.03;13.63;;;25.00;99.90;;;;;;5133548;28;20476;-62
2022/08/19 10:22:29;;;;;;;14.90;13.47;;;25.00;99.90;;;;;;5133439;28;20448;-61
2022/08/19 10:24:56;;;;;;;15.30;13.70;;;25.00;99.90;;;;;;5120765;28;20445;-59
2022/08/19 10:27:23;;;;;;;18.93;13.40;;;25.00;99.90;;;;;;5112759;28;20449;-64
2022/08/19 10:29:50;;;;;;;16.90;15.00;;;25.00;99.90;;;;;;5112967;28;20634;-65
2022/08/19 10:32:16;;;;;;;17.87;16.23;;;25.10;99.90;;;;;;5112991;28;20866;-65
2022/08/19 10:34:43;;;;;;;16.67;15.17;;;25.10;99.90;;;;;;5112818;28;20528;-58
2022/08/19 10:37:09;;;;;;;18.63;17.07;;;25.30;99.90;;;;;;5117835;28;20437;-62
2022/08/19 10:39:37;;;;;;;16.60;15.40;;;25.30;99.90;;;;;;5112666;28;20441;-60
2022/08/19 10:42:07;;;;;;;15.90;14.70;;;25.30;99.90;;;;;;5111926;28;20568;-62
2022/08/19 10:44:35;;;;;;;19.50;17.50;;;25.40;99.90;;;;;;5114063;28;20442;-61
2022/08/19 10:47:03;;;;;;;19.50;17.90;;;25.40;99.90;;;;;;5129749;28;20945;-60
2022/08/19 10:49:30;;;;;;;17.20;16.00;;;25.30;99.90;;;;;;5132679;28;20552;-60
2022/08/19 10:57:29;;;;;;;17.73;16.43;;;25.20;99.90;;;;;;5133097;28;20435;-60
2022/08/19 10:59:55;;;;;;;19.47;17.87;;;25.10;99.90;;;;;;5133177;28;20445;-60
2022/08/19 11:02:22;;;;;;;18.93;17.37;;;25.10;99.90;;;;;;5133118;28;20455;-60
2022/08/19 11:04:51;;;;;;;19.90;18.30;;;25.10;99.90;;;;;;5132698;28;20507;-60
2022/08/19 11:07:18;;;;;;;18.27;16.87;;;25.10;99.90;;;;;;5133218;28;20927;-60
2022/08/19 11:09:46;;;;;;;19.40;17.60;;;25.20;99.90;;;;;;5133295;27;20536;-60
2022/08/19 11:12:14;;;;;;;30.87;18.97;;;25.20;99.90;;;;;;5136526;27;20962;-60
2022/08/19 11:14:42;;;;;;;20.30;17.10;;;25.20;99.90;;;;;;5136873;27;20531;-60
2022/08/19 11:17:10;;;;;;;17.73;16.33;;;25.30;99.90;;;;;;5136713;27;20451;-62
2022/08/19 11:19:37;;;;;;;18.43;16.87;;;25.30;99.90;;;;;;5136632;27;20957;-60
2022/08/19 11:22:04;;;;;;;19.30;17.63;;;25.30;99.90;;;;;;5136627;27;20514;-61
2022/08/19 11:24:32;;;;;;;18.77;17.17;;;25.40;99.90;;;;;;5136794;27;20539;-60
2022/08/19 11:27:04;;;;;;;18.23;16.73;;;25.40;99.90;;;;;;5136574;27;20448;-60
2022/08/19 11:29:31;;;;;;;18.63;17.30;;;25.40;99.90;;;;;;5136641;27;20449;-60
2022/08/19 11:32:01;;;;;;;19.07;17.27;;;25.50;99.90;;;;;;5136398;27;20470;-60
2022/08/19 11:34:29;;;;;;;17.40;16.00;;;25.40;99.90;;;;;;5136389;27;20857;-60
2022/08/19 11:36:57;;;;;;;18.00;16.50;;;25.30;99.90;;;;;;5136278;27;20453;-61
2022/08/19 11:39:24;;;;;;;18.27;16.77;;;25.20;99.90;;;;;;5136434;27;20497;-60
2022/08/19 11:41:51;;;;;;;18.20;16.67;;;25.10;99.90;;;;;;5136252;27;20481;-60
2022/08/19 11:44:18;;;;;;;18.97;17.47;;;25.00;99.90;;;;;;5136032;27;20450;-61
2022/08/19 11:46:46;;;;;;;18.70;17.23;;;25.00;99.90;;;;;;5136247;27;20785;-61
2022/08/19 11:49:15;;;;;;;17.70;16.10;;;24.90;99.90;;;;;;5136437;27;20492;-61
2022/08/19 11:51:42;;;;;;;17.70;16.33;;;24.90;99.90;;;;;;5136091;27;20481;-60
2022/08/19 11:54:09;;;;;;;17.73;16.33;;;24.90;99.90;;;;;;5136110;27;20448;-60
2022/08/19 11:56:38;;;;;;;17.40;15.97;;;24.90;99.90;;;;;;5136007;27;20444;-60
2022/08/19 11:59:05;;;;;;;16.40;15.03;;;24.90;99.90;;;;;;5135807;27;20811;-60
2022/08/19 12:01:31;;;;;;;17.77;16.27;;;24.90;99.90;;;;;;5135922;27;20486;-61
2022/08/19 12:03:58;;;;;;;16.20;14.90;;;25.00;99.90;;;;;;5135905;27;20444;-60
2022/08/19 12:06:28;;;;;;;15.93;14.67;;;25.00;99.90;;;;;;5135863;27;20485;-61
2022/08/19 12:08:56;;;;;;;18.53;16.67;;;25.00;99.90;;;;;;5135656;27;20447;-61
2022/08/19 12:11:23;;;;;;;17.60;16.17;;;25.00;99.90;;;;;;5135511;27;20536;-61
2022/08/19 12:13:50;;;;;;;18.07;16.57;;;25.00;99.90;;;;;;5136037;27;20467;-60
2022/08/19 12:16:19;;;;;;;18.50;16.80;;;24.90;99.90;;;;;;5135596;27;20932;-61
2022/08/19 12:18:46;;;;;;;17.43;16.03;;;24.90;99.90;;;;;;5135585;27;20453;-60
2022/08/19 12:21:14;;;;;;;17.50;16.10;;;25.00;99.90;;;;;;5135118;27;20500;-61
2022/08/19 12:23:42;;;;;;;16.50;15.33;;;25.00;99.90;;;;;;5135412;27;20799;-60
2022/08/19 12:26:10;;;;;;;17.37;15.80;;;24.90;99.90;;;;;;5135412;27;20966;-60
2022/08/19 12:28:37;;;;;;;17.30;15.73;;;25.00;99.90;;;;;;5135675;27;20446;-60
2022/08/19 12:31:04;;;;;;;16.47;14.97;;;24.90;99.90;;;;;;5135396;27;20463;-61
2022/08/19 12:33:31;;;;;;;16.50;15.20;;;24.90;99.90;;;;;;5135335;27;20535;-61
2022/08/19 12:36:02;;;;;;;16.60;14.97;;;24.90;99.90;;;;;;5135257;27;20436;-60
2022/08/19 12:38:28;;;;;;;17.03;15.23;;;24.90;99.90;;;;;;5135156;27;20489;-60
2022/08/19 12:40:56;;;;;;;16.27;14.87;;;24.80;99.90;;;;;;5135006;27;20971;-60
2022/08/19 12:43:22;;;;;;;15.30;14.10;;;24.80;99.90;;;;;;5135168;27;20437;-61
2022/08/19 12:45:50;;;;;;;16.73;15.30;;;24.90;99.90;;;;;;5135056;27;20527;-60
2022/08/19 12:48:16;;;;;;;16.20;14.93;;;24.90;99.90;;;;;;5134896;27;20464;-60
2022/08/19 12:50:46;;;;;;;16.50;15.00;;;24.90;99.90;;;;;;5135018;27;20451;-60
2022/08/19 12:53:13;;;;;;;14.57;13.40;;;25.00;99.90;;;;;;5134668;27;20445;-60
2022/08/19 12:55:39;;;;;;;14.70;13.50;;;25.00;99.90;;;;;;5134975;27;20447;-60